Time;durP1;ratioP1;P1;durP2;ratioP2;P2;SDS_P1;SDS_P2;PMS_P1;PMS_P2;Temp;Humidity;BMP_temperature;BMP_pressure;BME280_temperature;BME280_humidity;BME280_pressure;Samples;Min_cycle;Max_cycle;Signal;HPM_P1;HPM_P2
2022/07/07 00:00:39;;;;;;;9.30;4.30;;;;;;;;;;5024156;28;20708;-64
2022/07/07 00:03:05;;;;;;;9.05;4.50;;;;;;;;;;5028616;28;20186;-64
2022/07/07 00:05:30;;;;;;;6.45;4.78;;;;;;;;;;5030245;28;20189;-64
2022/07/07 00:07:56;;;;;;;7.20;4.85;;;;;;;;;;5032867;28;20752;-65
2022/07/07 00:10:21;;;;;;;6.10;4.13;;;;;;;;;;5039931;28;20208;-64
2022/07/07 00:12:47;;;;;;;9.35;4.90;;;;;;;;;;5027754;28;20206;-64
2022/07/07 00:15:12;;;;;;;6.32;4.93;;;;;;;;;;5030875;28;20545;-65
2022/07/07 00:17:37;;;;;;;7.03;5.07;;;;;;;;;;5028844;28;20185;-64
2022/07/07 00:20:04;;;;;;;10.30;5.18;;;;;;;;;;5016212;28;20190;-64
2022/07/07 00:22:30;;;;;;;8.55;4.97;;;;;;;;;;5016453;28;20372;-64
2022/07/07 00:24:55;;;;;;;7.90;5.25;;;;;;;;;;5027790;28;20690;-64
2022/07/07 00:27:20;;;;;;;9.63;5.35;;;;;;;;;;5030617;28;20276;-64
2022/07/07 00:29:46;;;;;;;8.68;5.78;;;;;;;;;;5029710;28;20190;-64
2022/07/07 00:32:11;;;;;;;9.63;5.53;;;;;;;;;;5023812;28;20201;-63
2022/07/07 00:34:37;;;;;;;8.70;6.00;;;;;;;;;;5019868;28;20186;-64
2022/07/07 00:37:03;;;;;;;9.15;5.60;;;;;;;;;;5036542;28;20185;-63
2022/07/07 00:39:28;;;;;;;10.32;6.10;;;;;;;;;;5032695;28;20190;-64
2022/07/07 00:41:54;;;;;;;10.05;6.38;;;;;;;;;;5018119;28;20202;-65
2022/07/07 00:44:20;;;;;;;10.15;5.20;;;;;;;;;;5030441;28;20265;-65
2022/07/07 00:46:49;;;;;;;6.55;5.03;;;;;;;;;;5027749;28;20610;-65
2022/07/07 00:49:17;;;;;;;8.38;5.60;;;;;;;;;;5030738;28;20227;-65
2022/07/07 00:51:43;;;;;;;8.10;4.55;;;;;;;;;;5024961;28;20312;-64
2022/07/07 00:54:10;;;;;;;7.03;5.35;;;;;;;;;;5016845;28;20670;-64
2022/07/07 00:56:36;;;;;;;7.93;5.00;;;;;;;;;;5024840;28;20181;-65
2022/07/07 00:59:06;;;;;;;9.57;5.78;;;;;;;;;;5025714;28;20183;-66
2022/07/07 01:01:32;;;;;;;8.48;5.57;;;;;;;;;;5016836;28;20306;-65
2022/07/07 01:03:59;;;;;;;8.88;5.65;;;;;;;;;;5015466;28;20179;-65
2022/07/07 01:06:25;;;;;;;9.18;6.15;;;;;;;;;;5026241;28;20178;-65
2022/07/07 01:08:53;;;;;;;8.55;5.80;;;;;;;;;;5029111;28;20638;-65
2022/07/07 01:11:18;;;;;;;9.10;5.90;;;;;;;;;;5018476;28;20645;-64
2022/07/07 01:13:43;;;;;;;13.35;6.10;;;;;;;;;;5026114;28;20189;-65
2022/07/07 01:16:09;;;;;;;9.52;6.55;;;;;;;;;;5019357;28;20259;-63
2022/07/07 01:18:34;;;;;;;9.40;6.10;;;;;;;;;;5026919;28;20268;-64
2022/07/07 01:21:02;;;;;;;9.27;6.18;;;;;;;;;;5029788;28;20268;-64
2022/07/07 01:23:27;;;;;;;12.35;6.93;;;;;;;;;;5033883;28;20182;-65
2022/07/07 01:25:52;;;;;;;9.88;7.07;;;;;;;;;;5028434;28;20189;-64
2022/07/07 01:28:18;;;;;;;11.75;7.35;;;;;;;;;;5024880;28;20586;-64
2022/07/07 01:30:43;;;;;;;13.63;7.38;;;;;;;;;;5018684;28;20267;-63
2022/07/07 01:33:08;;;;;;;10.52;7.45;;;;;;;;;;5026771;28;20244;-63
2022/07/07 01:35:34;;;;;;;10.90;7.50;;;;;;;;;;5028103;28;20625;-64
2022/07/07 01:37:59;;;;;;;10.95;7.30;;;;;;;;;;5019541;28;20213;-65
2022/07/07 01:40:24;;;;;;;12.07;7.45;;;;;;;;;;5033505;28;20186;-65
2022/07/07 01:42:50;;;;;;;10.93;6.93;;;;;;;;;;5024314;28;20223;-65
2022/07/07 01:45:15;;;;;;;10.32;6.78;;;;;;;;;;5023078;28;20186;-65
2022/07/07 01:47:40;;;;;;;12.38;7.00;;;;;;;;;;5028238;28;20261;-65
2022/07/07 01:50:06;;;;;;;11.98;6.38;;;;;;;;;;5025249;28;20655;-66
2022/07/07 01:52:31;;;;;;;12.02;6.88;;;;;;;;;;5023112;28;20548;-66
2022/07/07 01:54:57;;;;;;;9.75;6.53;;;;;;;;;;5018942;28;20190;-65
2022/07/07 01:57:22;;;;;;;11.73;7.47;;;;;;;;;;5028783;28;20198;-65
2022/07/07 01:59:48;;;;;;;10.80;7.20;;;;;;;;;;5017322;28;20178;-65
2022/07/07 02:02:13;;;;;;;10.82;7.35;;;;;;;;;;5023329;28;20209;-65
2022/07/07 02:04:39;;;;;;;11.35;6.65;;;;;;;;;;5027962;28;20189;-64
2022/07/07 02:07:04;;;;;;;12.02;6.70;;;;;;;;;;5027001;28;20206;-65
2022/07/07 02:09:30;;;;;;;8.57;6.68;;;;;;;;;;5030325;28;20347;-65
2022/07/07 02:11:55;;;;;;;8.80;6.65;;;;;;;;;;5025740;28;20667;-66
2022/07/07 02:14:21;;;;;;;9.02;6.75;;;;;;;;;;5030961;28;20182;-66
2022/07/07 02:16:47;;;;;;;14.85;6.65;;;;;;;;;;5024855;28;20248;-65
2022/07/07 02:19:13;;;;;;;10.77;6.93;;;;;;;;;;5015320;28;20187;-65
2022/07/07 02:21:38;;;;;;;11.38;6.80;;;;;;;;;;5012459;28;20340;-65
2022/07/07 02:24:04;;;;;;;8.00;6.03;;;;;;;;;;5024624;28;20281;-65
2022/07/07 02:26:33;;;;;;;9.40;6.13;;;;;;;;;;5022960;28;20190;-65
2022/07/07 02:28:59;;;;;;;12.52;6.63;;;;;;;;;;5023793;28;20221;-65
2022/07/07 02:31:25;;;;;;;8.88;6.00;;;;;;;;;;5016472;28;20205;-64
2022/07/07 02:33:50;;;;;;;9.05;6.20;;;;;;;;;;5010210;28;20607;-65
2022/07/07 02:36:16;;;;;;;7.95;6.18;;;;;;;;;;5021844;28;20313;-63
2022/07/07 02:38:41;;;;;;;11.57;6.38;;;;;;;;;;5025339;28;20260;-63
2022/07/07 02:41:07;;;;;;;10.10;6.35;;;;;;;;;;5032213;28;20205;-65
2022/07/07 02:43:33;;;;;;;12.73;6.40;;;;;;;;;;5036084;28;20236;-65
2022/07/07 02:45:59;;;;;;;10.90;7.28;;;;;;;;;;5025280;28;20243;-65
2022/07/07 02:48:25;;;;;;;10.48;7.25;;;;;;;;;;5011215;28;20194;-65
2022/07/07 02:50:51;;;;;;;11.18;7.65;;;;;;;;;;5022362;28;20178;-68
2022/07/07 02:53:18;;;;;;;11.60;7.28;;;;;;;;;;5020672;28;20175;-65
2022/07/07 02:55:44;;;;;;;10.02;6.43;;;;;;;;;;5017688;28;20638;-66
2022/07/07 02:58:11;;;;;;;7.80;5.32;;;;;;;;;;5027080;28;20186;-64
2022/07/07 03:00:38;;;;;;;7.10;4.78;;;;;;;;;;5020312;28;20182;-66
2022/07/07 03:03:06;;;;;;;5.43;4.38;;;;;;;;;;5024350;28;20209;-67
2022/07/07 03:05:32;;;;;;;5.13;4.28;;;;;;;;;;5039438;28;20177;-66
2022/07/07 03:07:58;;;;;;;6.90;3.53;;;;;;;;;;5038980;28;20184;-67
2022/07/07 03:10:24;;;;;;;4.90;4.03;;;;;;;;;;5031165;28;20197;-66
2022/07/07 03:12:49;;;;;;;5.70;3.80;;;;;;;;;;5033670;28;20177;-67
2022/07/07 03:15:15;;;;;;;3.42;2.97;;;;;;;;;;5025228;28;20189;-66
2022/07/07 03:17:42;;;;;;;5.57;3.13;;;;;;;;;;5031207;28;20174;-67
2022/07/07 03:20:10;;;;;;;3.45;3.00;;;;;;;;;;5018636;28;20224;-67
2022/07/07 03:22:35;;;;;;;5.00;2.75;;;;;;;;;;5019778;28;20249;-65
2022/07/07 03:25:00;;;;;;;5.97;3.55;;;;;;;;;;5018223;28;20244;-68
2022/07/07 03:27:26;;;;;;;5.15;3.65;;;;;;;;;;5029222;28;20693;-66
2022/07/07 03:29:51;;;;;;;4.43;3.40;;;;;;;;;;5008606;28;20523;-66
2022/07/07 03:32:17;;;;;;;6.45;3.90;;;;;;;;;;5013984;28;20609;-68
2022/07/07 03:34:42;;;;;;;4.28;3.88;;;;;;;;;;5022369;28;20252;-68
2022/07/07 03:37:08;;;;;;;4.43;4.03;;;;;;;;;;5021338;28;20287;-66
2022/07/07 03:39:33;;;;;;;4.47;3.58;;;;;;;;;;5018547;28;20178;-66
2022/07/07 03:41:59;;;;;;;5.80;3.63;;;;;;;;;;5021930;28;20782;-68
2022/07/07 03:44:25;;;;;;;4.00;3.13;;;;;;;;;;5013785;28;20179;-68
2022/07/07 03:46:50;;;;;;;4.78;3.58;;;;;;;;;;5023430;28;20619;-70
2022/07/07 03:49:16;;;;;;;4.82;3.10;;;;;;;;;;5021292;28;20186;-69
2022/07/07 03:51:41;;;;;;;4.03;2.70;;;;;;;;;;5021158;28;20192;-67
2022/07/07 03:54:07;;;;;;;4.45;3.20;;;;;;;;;;5024100;28;20213;-67
2022/07/07 03:56:32;;;;;;;4.03;2.95;;;;;;;;;;5016396;28;20186;-66
2022/07/07 03:58:58;;;;;;;2.60;2.40;;;;;;;;;;5020244;28;20234;-68
2022/07/07 04:01:23;;;;;;;3.90;2.60;;;;;;;;;;5022141;28;20213;-69
2022/07/07 04:03:48;;;;;;;4.75;3.05;;;;;;;;;;5022210;28;20459;-67
2022/07/07 04:06:14;;;;;;;4.35;3.33;;;;;;;;;;5025751;28;20186;-67
2022/07/07 04:08:39;;;;;;;5.28;3.63;;;;;;;;;;5026559;28;20193;-66
2022/07/07 04:11:05;;;;;;;5.95;3.70;;;;;;;;;;5023638;28;20595;-67
2022/07/07 04:13:30;;;;;;;4.78;3.80;;;;;;;;;;5027223;28;20190;-65
2022/07/07 04:15:56;;;;;;;7.20;4.28;;;;;;;;;;5023963;28;20213;-65
2022/07/07 04:18:21;;;;;;;9.68;4.13;;;;;;;;;;5017503;28;20191;-68
2022/07/07 04:20:47;;;;;;;7.28;4.03;;;;;;;;;;5028852;28;20219;-68
2022/07/07 04:23:12;;;;;;;7.18;4.63;;;;;;;;;;5020835;28;20224;-68
2022/07/07 04:25:38;;;;;;;8.30;4.72;;;;;;;;;;5028880;28;20185;-67
2022/07/07 04:28:03;;;;;;;7.63;4.60;;;;;;;;;;5035237;28;20257;-66
2022/07/07 04:30:29;;;;;;;6.45;4.93;;;;;;;;;;5020415;28;20190;-67
2022/07/07 04:32:54;;;;;;;6.70;4.85;;;;;;;;;;5036124;28;20556;-68
2022/07/07 04:35:19;;;;;;;8.07;4.80;;;;;;;;;;5033441;28;20186;-68
2022/07/07 04:37:45;;;;;;;10.25;5.38;;;;;;;;;;5026833;28;20594;-74
2022/07/07 04:40:10;;;;;;;5.55;5.03;;;;;;;;;;5022573;28;20231;-75
2022/07/07 04:42:36;;;;;;;6.88;4.72;;;;;;;;;;5029563;28;20225;-76
2022/07/07 04:45:01;;;;;;;10.50;4.75;;;;;;;;;;5034003;28;20258;-76
2022/07/07 04:47:27;;;;;;;6.78;4.60;;;;;;;;;;5040547;28;20193;-77
2022/07/07 04:49:52;;;;;;;9.80;5.03;;;;;;;;;;5025157;28;21283;-79
2022/07/07 04:52:17;;;;;;;5.00;3.78;;;;;;;;;;5039903;28;20192;-81
2022/07/07 04:54:43;;;;;;;4.15;3.17;;;;;;;;;;5039712;28;20248;-76
2022/07/07 04:57:09;;;;;;;5.90;3.30;;;;;;;;;;5037428;28;20296;-76
2022/07/07 04:59:34;;;;;;;6.45;2.30;;;;;;;;;;5045748;28;20228;-77
2022/07/07 05:01:59;;;;;;;4.95;2.72;;;;;;;;;;5036602;28;20210;-76
2022/07/07 05:04:25;;;;;;;6.13;2.83;;;;;;;;;;5035082;28;20190;-75
2022/07/07 05:06:50;;;;;;;6.47;2.08;;;;;;;;;;5028183;28;20186;-75
2022/07/07 05:09:16;;;;;;;7.47;2.38;;;;;;;;;;5031457;28;20548;-71
2022/07/07 05:11:41;;;;;;;7.47;2.03;;;;;;;;;;5022550;28;20801;-71
2022/07/07 05:14:06;;;;;;;7.75;2.13;;;;;;;;;;5040839;28;20592;-71
2022/07/07 05:16:32;;;;;;;9.27;1.45;;;;;;;;;;5027992;28;20686;-69
2022/07/07 05:18:57;;;;;;;5.53;1.17;;;;;;;;;;5028455;28;20228;-72
2022/07/07 05:21:22;;;;;;;3.75;1.02;;;;;;;;;;5030636;28;20678;-71
2022/07/07 05:23:48;;;;;;;4.53;1.10;;;;;;;;;;5041080;28;20647;-71
2022/07/07 05:26:14;;;;;;;5.35;1.13;;;;;;;;;;5043331;28;20212;-71
2022/07/07 05:28:42;;;;;;;6.70;1.73;;;;;;;;;;5038420;28;20600;-68
2022/07/07 05:31:12;;;;;;;5.13;1.13;;;;;;;;;;5036633;28;20194;-70
2022/07/07 05:33:38;;;;;;;7.90;1.40;;;;;;;;;;5042436;28;20215;-72
2022/07/07 05:36:05;;;;;;;10.57;1.70;;;;;;;;;;5035355;28;20653;-70
2022/07/07 05:38:30;;;;;;;5.90;1.27;;;;;;;;;;5028287;28;20208;-70
2022/07/07 05:40:56;;;;;;;7.93;1.50;;;;;;;;;;5017990;28;20193;-68
2022/07/07 05:43:21;;;;;;;5.45;1.30;;;;;;;;;;5024764;28;20643;-74
2022/07/07 05:45:47;;;;;;;4.43;1.33;;;;;;;;;;5037238;28;20188;-72
2022/07/07 05:48:12;;;;;;;8.10;1.42;;;;;;;;;;5039565;28;20577;-73
2022/07/07 05:50:37;;;;;;;7.20;1.40;;;;;;;;;;5045724;28;20181;-69
2022/07/07 05:53:03;;;;;;;6.05;1.42;;;;;;;;;;5038725;28;20260;-70
2022/07/07 05:55:28;;;;;;;5.20;1.63;;;;;;;;;;5042966;28;20192;-68
2022/07/07 05:57:53;;;;;;;9.90;1.20;;;;;;;;;;5039931;28;20209;-69
2022/07/07 06:00:19;;;;;;;9.02;1.98;;;;;;;;;;5040826;28;20205;-71
2022/07/07 06:02:44;;;;;;;7.05;1.30;;;;;;;;;;5041613;28;20209;-69
2022/07/07 06:05:09;;;;;;;4.72;1.20;;;;;;;;;;5044383;28;20177;-70
2022/07/07 06:07:35;;;;;;;6.25;1.55;;;;;;;;;;5043216;28;20238;-69
2022/07/07 06:10:00;;;;;;;6.22;1.33;;;;;;;;;;5037074;28;20198;-70
2022/07/07 06:12:26;;;;;;;9.32;1.63;;;;;;;;;;5042224;28;20210;-68
2022/07/07 06:14:51;;;;;;;5.82;1.00;;;;;;;;;;5038602;28;20188;-70
2022/07/07 06:17:16;;;;;;;7.85;1.38;;;;;;;;;;5037682;28;20188;-69
2022/07/07 06:19:42;;;;;;;14.45;1.75;;;;;;;;;;5041422;28;20216;-68
2022/07/07 06:22:07;;;;;;;5.13;1.10;;;;;;;;;;5035896;28;20246;-69
2022/07/07 06:24:33;;;;;;;16.98;1.73;;;;;;;;;;5035628;28;20670;-74
2022/07/07 06:26:58;;;;;;;10.55;1.70;;;;;;;;;;5042094;28;20641;-71
2022/07/07 06:29:23;;;;;;;10.15;1.80;;;;;;;;;;5027604;28;20343;-67
2022/07/07 06:31:48;;;;;;;10.95;2.35;;;;;;;;;;5027643;28;20449;-66
2022/07/07 06:34:14;;;;;;;9.35;1.55;;;;;;;;;;5027277;28;20538;-66
2022/07/07 06:36:39;;;;;;;12.35;1.70;;;;;;;;;;5019845;28;20208;-69
2022/07/07 06:39:05;;;;;;;8.40;1.52;;;;;;;;;;5025826;28;20243;-70
2022/07/07 06:41:37;;;;;;;9.65;1.70;;;;;;;;;;5028174;28;20209;-69
2022/07/07 06:44:04;;;;;;;4.55;1.40;;;;;;;;;;5019523;28;20641;-69
2022/07/07 06:46:29;;;;;;;6.53;1.55;;;;;;;;;;5018310;28;20204;-68
2022/07/07 06:48:55;;;;;;;6.22;1.50;;;;;;;;;;5018810;28;20206;-72
2022/07/07 06:51:21;;;;;;;5.05;1.30;;;;;;;;;;5023466;28;20276;-65
2022/07/07 06:53:46;;;;;;;9.00;1.70;;;;;;;;;;5017824;28;20294;-68
2022/07/07 06:56:13;;;;;;;7.47;1.60;;;;;;;;;;5023538;28;20248;-66
2022/07/07 06:58:38;;;;;;;8.07;1.42;;;;;;;;;;5018109;28;20233;-68
2022/07/07 07:01:03;;;;;;;7.07;1.45;;;;;;;;;;5027874;28;20213;-68
2022/07/07 07:03:29;;;;;;;6.32;1.88;;;;;;;;;;5026071;28;20281;-67
2022/07/07 07:05:54;;;;;;;6.22;1.23;;;;;;;;;;5028963;28;20185;-69
2022/07/07 07:08:19;;;;;;;9.45;1.17;;;;;;;;;;5025176;28;20178;-67
2022/07/07 07:10:45;;;;;;;3.92;1.20;;;;;;;;;;5024682;28;20190;-64
2022/07/07 07:13:10;;;;;;;8.02;1.38;;;;;;;;;;5022279;28;20186;-66
2022/07/07 07:15:35;;;;;;;6.43;1.38;;;;;;;;;;5022443;28;20186;-67
2022/07/07 07:18:01;;;;;;;5.03;1.08;;;;;;;;;;5026788;28;20186;-65
2022/07/07 07:20:26;;;;;;;6.90;0.93;;;;;;;;;;5024820;28;20177;-68
2022/07/07 07:22:52;;;;;;;8.77;1.40;;;;;;;;;;5029110;28;20263;-65
2022/07/07 07:25:18;;;;;;;11.90;1.48;;;;;;;;;;5030824;28;20184;-68
2022/07/07 07:27:44;;;;;;;7.30;1.25;;;;;;;;;;5030832;28;20731;-66
2022/07/07 07:30:10;;;;;;;7.68;1.00;;;;;;;;;;5032890;28;20440;-72
2022/07/07 07:32:35;;;;;;;10.30;1.30;;;;;;;;;;5034993;28;20256;-76
2022/07/07 07:35:01;;;;;;;8.93;1.20;;;;;;;;;;5032551;28;20174;-70
2022/07/07 07:37:26;;;;;;;8.35;0.90;;;;;;;;;;5026162;28;20174;-67
2022/07/07 07:39:51;;;;;;;7.45;1.02;;;;;;;;;;5026883;28;20198;-68
2022/07/07 07:42:17;;;;;;;9.05;1.17;;;;;;;;;;5027085;28;20197;-67
2022/07/07 07:47:26;;;;;;;7.10;1.20;;;;;;;;;;5033770;28;20212;-72
2022/07/07 07:49:51;;;;;;;7.18;1.30;;;;;;;;;;5020500;28;20602;-66
2022/07/07 07:52:17;;;;;;;5.72;0.98;;;;;;;;;;5031618;28;20189;-66
2022/07/07 07:54:42;;;;;;;6.60;1.15;;;;;;;;;;5034140;28;20577;-66
2022/07/07 07:57:07;;;;;;;3.45;0.95;;;;;;;;;;5031991;28;20768;-68
2022/07/07 07:59:32;;;;;;;6.57;0.77;;;;;;;;;;5019336;28;20234;-66
2022/07/07 08:01:58;;;;;;;6.85;1.00;;;;;;;;;;5026797;28;20252;-68
2022/07/07 08:04:23;;;;;;;4.28;0.80;;;;;;;;;;5026345;28;20654;-68
2022/07/07 08:06:49;;;;;;;5.72;0.88;;;;;;;;;;5030480;28;20555;-68
2022/07/07 08:09:14;;;;;;;5.03;0.75;;;;;;;;;;5032290;28;20194;-66
2022/07/07 08:11:39;;;;;;;6.53;1.25;;;;;;;;;;5029632;28;20637;-68
2022/07/07 08:14:04;;;;;;;3.53;0.80;;;;;;;;;;5031072;28;20657;-67
2022/07/07 08:16:30;;;;;;;2.25;0.60;;;;;;;;;;5040297;28;20265;-68
2022/07/07 08:18:55;;;;;;;4.28;0.73;;;;;;;;;;5030574;28;20265;-68
2022/07/07 08:21:20;;;;;;;4.82;0.90;;;;;;;;;;5027457;28;20356;-66
2022/07/07 08:23:46;;;;;;;1.83;0.60;;;;;;;;;;5028121;28;20476;-69
2022/07/07 08:26:12;;;;;;;3.65;0.43;;;;;;;;;;5025078;28;20182;-73
2022/07/07 08:28:38;;;;;;;1.92;0.40;;;;;;;;;;5034891;28;20283;-70
2022/07/07 08:31:03;;;;;;;3.08;0.57;;;;;;;;;;5038802;28;20205;-69
2022/07/07 08:33:28;;;;;;;5.28;0.38;;;;;;;;;;5025981;28;20182;-74
2022/07/07 08:35:54;;;;;;;1.60;0.57;;;;;;;;;;5035492;28;20192;-71
2022/07/07 08:38:19;;;;;;;3.22;0.70;;;;;;;;;;5045000;28;20861;-68
2022/07/07 08:40:45;;;;;;;2.50;0.57;;;;;;;;;;5030180;28;20232;-66
2022/07/07 08:43:10;;;;;;;2.53;0.40;;;;;;;;;;5041567;28;20217;-75
2022/07/07 08:45:36;;;;;;;2.50;0.50;;;;;;;;;;5029866;28;20232;-66
2022/07/07 08:48:01;;;;;;;1.35;0.40;;;;;;;;;;5037574;28;20231;-70
2022/07/07 08:50:26;;;;;;;3.08;0.50;;;;;;;;;;5029758;28;20285;-71
2022/07/07 08:52:54;;;;;;;3.05;0.50;;;;;;;;;;5028790;28;20209;-65
2022/07/07 08:55:23;;;;;;;2.40;0.60;;;;;;;;;;5038275;28;20189;-64
2022/07/07 08:57:51;;;;;;;1.88;0.60;;;;;;;;;;5034472;28;20215;-71
2022/07/07 09:00:17;;;;;;;4.60;0.75;;;;;;;;;;5038838;28;20200;-66
2022/07/07 09:02:42;;;;;;;3.33;0.85;;;;;;;;;;5040885;28;20291;-68
2022/07/07 09:05:08;;;;;;;4.82;1.27;;;;;;;;;;5039135;28;20268;-66
2022/07/07 09:07:53;;;;;;;4.28;1.00;;;;;;;;;;5044777;28;20299;-66
2022/07/07 09:10:29;;;;;;;4.65;0.95;;;;;;;;;;5042039;28;20189;-69
2022/07/07 09:12:55;;;;;;;3.65;0.77;;;;;;;;;;5045882;28;20255;-66
2022/07/07 09:15:21;;;;;;;2.33;0.70;;;;;;;;;;5046571;28;20732;-70
2022/07/07 09:17:46;;;;;;;2.35;0.80;;;;;;;;;;5040070;28;20217;-67
2022/07/07 09:20:12;;;;;;;3.88;0.85;;;;;;;;;;5044685;28;20231;-67
2022/07/07 09:22:53;;;;;;;4.85;1.13;;;;;;;;;;5044188;28;20292;-71
2022/07/07 09:25:24;;;;;;;4.05;0.77;;;;;;;;;;5032033;28;20187;-66
2022/07/07 09:28:02;;;;;;;5.25;0.98;;;;;;;;;;5027324;28;20488;-69
2022/07/07 09:30:31;;;;;;;3.45;0.82;;;;;;;;;;5024146;28;20572;-69
2022/07/07 09:32:58;;;;;;;5.20;0.95;;;;;;;;;;5020628;28;20685;-69
2022/07/07 09:38:13;;;;;;;5.68;0.70;;;;;;;;;;5047363;28;20223;-68
2022/07/07 09:41:10;;;;;;;4.25;0.82;;;;;;;;;;5039348;28;20715;-65
2022/07/07 09:43:51;;;;;;;2.33;0.80;;;;;;;;;;5024444;28;20651;-66
2022/07/07 09:46:22;;;;;;;2.53;0.60;;;;;;;;;;5024782;28;20186;-67
2022/07/07 09:48:59;;;;;;;2.67;0.55;;;;;;;;;;5027044;28;20549;-69
2022/07/07 09:51:26;;;;;;;2.28;0.65;;;;;;;;;;5024801;28;20189;-69
2022/07/07 09:54:06;;;;;;;2.90;0.50;;;;;;;;;;5028393;28;20187;-67
2022/07/07 09:56:43;;;;;;;3.28;0.50;;;;;;;;;;5025901;28;20181;-71
2022/07/07 09:59:20;;;;;;;3.95;0.70;;;;;;;;;;5039661;28;20185;-67
2022/07/07 10:01:46;;;;;;;2.78;0.60;;;;;;;;;;5026656;28;20287;-69
2022/07/07 10:04:22;;;;;;;2.95;0.85;;;;;;;;;;5025229;28;20177;-69
2022/07/07 10:06:48;;;;;;;4.85;0.95;;;;;;;;;;5034517;28;20641;-69
2022/07/07 10:09:18;;;;;;;2.67;0.75;;;;;;;;;;5034396;28;20180;-68
2022/07/07 10:11:52;;;;;;;3.30;0.60;;;;;;;;;;5039099;28;20673;-74
2022/07/07 10:14:20;;;;;;;1.98;0.60;;;;;;;;;;5033602;28;20205;-66
2022/07/07 10:16:48;;;;;;;2.72;1.05;;;;;;;;;;5034229;28;20181;-68
2022/07/07 10:19:16;;;;;;;1.67;0.75;;;;;;;;;;5039416;28;20524;-70
2022/07/07 10:21:44;;;;;;;2.22;0.70;;;;;;;;;;5032105;28;20339;-67
2022/07/07 10:24:10;;;;;;;3.85;0.55;;;;;;;;;;5013270;28;20186;-70
2022/07/07 10:26:43;;;;;;;1.75;0.50;;;;;;;;;;5024640;28;20193;-69
2022/07/07 10:29:10;;;;;;;5.45;1.00;;;;;;;;;;5037094;28;20754;-69
2022/07/07 10:31:37;;;;;;;6.72;2.08;;;;;;;;;;5034665;28;20198;-70
2022/07/07 10:34:04;;;;;;;3.42;1.02;;;;;;;;;;5044111;28;20702;-69
2022/07/07 10:36:50;;;;;;;5.35;0.80;;;;;;;;;;5045295;28;20312;-73
2022/07/07 10:39:17;;;;;;;5.30;1.00;;;;;;;;;;5034900;28;20194;-76
2022/07/07 10:41:59;;;;;;;2.97;0.88;;;;;;;;;;5029900;28;20782;-70
2022/07/07 10:44:24;;;;;;;4.00;1.00;;;;;;;;;;5043704;28;20189;-66
2022/07/07 10:47:03;;;;;;;4.28;0.80;;;;;;;;;;5040367;28;20185;-69
2022/07/07 10:49:41;;;;;;;4.60;0.82;;;;;;;;;;5040639;28;20457;-68
2022/07/07 10:52:14;;;;;;;5.03;0.90;;;;;;;;;;5042577;28;20747;-69
2022/07/07 10:54:43;;;;;;;2.92;0.75;;;;;;;;;;5029760;28;20217;-68
2022/07/07 10:57:12;;;;;;;2.55;0.90;;;;;;;;;;5042037;28;20181;-67
2022/07/07 10:59:56;;;;;;;3.28;0.80;;;;;;;;;;5030332;28;20282;-68
2022/07/07 11:02:32;;;;;;;4.75;1.02;;;;;;;;;;5042990;28;20680;-68
2022/07/07 11:04:59;;;;;;;2.85;0.70;;;;;;;;;;5041869;28;20177;-70
2022/07/07 11:07:26;;;;;;;5.07;1.10;;;;;;;;;;5036645;28;20250;-68
2022/07/07 11:10:04;;;;;;;2.08;0.90;;;;;;;;;;5036348;28;20285;-68
2022/07/07 11:12:37;;;;;;;3.67;0.75;;;;;;;;;;5041344;28;20288;-67
2022/07/07 11:15:14;;;;;;;6.18;1.00;;;;;;;;;;5026525;28;20190;-67
2022/07/07 11:17:40;;;;;;;5.68;1.13;;;;;;;;;;5020094;28;20246;-70
2022/07/07 11:20:13;;;;;;;4.35;0.80;;;;;;;;;;5017101;28;20218;-70
2022/07/07 11:22:55;;;;;;;2.67;0.55;;;;;;;;;;5011242;28;20725;-68
2022/07/07 11:25:24;;;;;;;2.75;0.55;;;;;;;;;;5023675;28;20186;-70
2022/07/07 11:27:51;;;;;;;1.85;0.40;;;;;;;;;;5029416;28;20214;-74
2022/07/07 11:30:20;;;;;;;1.85;0.50;;;;;;;;;;5021185;28;20186;-64
2022/07/07 11:32:46;;;;;;;1.83;0.65;;;;;;;;;;5028502;28;20292;-67
2022/07/07 11:35:13;;;;;;;1.88;0.70;;;;;;;;;;5029085;28;20526;-68
2022/07/07 11:37:48;;;;;;;2.47;0.63;;;;;;;;;;5026245;28;20239;-69
2022/07/07 11:40:14;;;;;;;2.28;0.88;;;;;;;;;;5025860;28;20187;-69
2022/07/07 11:42:40;;;;;;;3.20;0.80;;;;;;;;;;5021415;28;20257;-68
2022/07/07 11:45:27;;;;;;;3.60;0.70;;;;;;;;;;5017807;28;20590;-69
2022/07/07 11:47:56;;;;;;;2.33;0.80;;;;;;;;;;5029870;28;20724;-74
2022/07/07 11:50:22;;;;;;;3.92;0.65;;;;;;;;;;5026739;28;20190;-72
2022/07/07 11:52:48;;;;;;;7.63;1.13;;;;;;;;;;5030867;28;20205;-69
2022/07/07 11:55:17;;;;;;;2.25;0.90;;;;;;;;;;5027950;28;20265;-67
2022/07/07 11:57:58;;;;;;;4.00;1.10;;;;;;;;;;5030961;28;20273;-69
2022/07/07 12:00:32;;;;;;;2.28;0.90;;;;;;;;;;5020541;28;20189;-66
2022/07/07 12:03:02;;;;;;;5.63;1.00;;;;;;;;;;5025639;28;20206;-65
2022/07/07 12:05:30;;;;;;;4.50;1.17;;;;;;;;;;5030510;28;20217;-72
2022/07/07 12:07:58;;;;;;;4.57;0.98;;;;;;;;;;5019793;28;20194;-66
2022/07/07 12:10:29;;;;;;;4.03;1.20;;;;;;;;;;5034570;28;20260;-71
2022/07/07 12:12:54;;;;;;;4.72;1.33;;;;;;;;;;5031531;28;20194;-71
2022/07/07 12:15:20;;;;;;;4.88;1.02;;;;;;;;;;5031618;28;20182;-66
2022/07/07 12:17:45;;;;;;;3.53;1.20;;;;;;;;;;5030834;28;20224;-80
2022/07/07 12:20:20;;;;;;;5.15;1.52;;;;;;;;;;5014163;28;20194;-80
2022/07/07 12:22:51;;;;;;;7.43;1.80;;;;;;;;;;5038416;28;20209;-73
2022/07/07 12:25:17;;;;;;;6.78;1.60;;;;;;;;;;5029902;28;20200;-66
2022/07/07 12:27:57;;;;;;;9.73;1.77;;;;;;;;;;5021777;28;20226;-70
2022/07/07 12:30:28;;;;;;;7.22;1.75;;;;;;;;;;5023235;28;20312;-77
2022/07/07 12:32:53;;;;;;;7.05;1.50;;;;;;;;;;5030414;28;20765;-71
2022/07/07 12:35:37;;;;;;;6.82;1.80;;;;;;;;;;5022401;28;20198;-70
2022/07/07 12:38:07;;;;;;;8.80;2.17;;;;;;;;;;5030340;28;20193;-74
2022/07/07 12:40:36;;;;;;;8.98;1.50;;;;;;;;;;5030934;28;20205;-73
2022/07/07 12:43:09;;;;;;;8.95;1.67;;;;;;;;;;5034531;28;20252;-67
2022/07/07 12:45:35;;;;;;;5.55;1.23;;;;;;;;;;5040784;28;20205;-71
2022/07/07 12:48:00;;;;;;;9.20;2.08;;;;;;;;;;5036977;28;20661;-74
2022/07/07 12:50:27;;;;;;;6.03;2.15;;;;;;;;;;5044107;28;20208;-75
2022/07/07 12:53:04;;;;;;;8.55;1.73;;;;;;;;;;5047490;28;20591;-67
2022/07/07 12:55:43;;;;;;;9.85;1.67;;;;;;;;;;5043440;28;20533;-73
2022/07/07 12:58:17;;;;;;;8.13;1.45;;;;;;;;;;5035351;28;20181;-70
2022/07/07 13:00:58;;;;;;;9.07;1.90;;;;;;;;;;5017890;28;20664;-74
2022/07/07 13:03:24;;;;;;;7.28;1.85;;;;;;;;;;5033942;28;20208;-76
2022/07/07 13:05:49;;;;;;;10.20;2.03;;;;;;;;;;5042416;28;20194;-71
2022/07/07 13:08:15;;;;;;;14.50;2.13;;;;;;;;;;5038252;28;20193;-74
2022/07/07 13:10:40;;;;;;;9.27;2.25;;;;;;;;;;5046599;28;20675;-74
2022/07/07 13:13:06;;;;;;;8.80;1.80;;;;;;;;;;5036637;28;20227;-74
2022/07/07 13:15:31;;;;;;;12.55;1.95;;;;;;;;;;5044722;28;20550;-68
2022/07/07 13:17:57;;;;;;;10.88;1.80;;;;;;;;;;5040941;28;20552;-70
2022/07/07 13:20:22;;;;;;;11.05;1.55;;;;;;;;;;5041573;28;20190;-67
2022/07/07 13:22:51;;;;;;;8.52;1.88;;;;;;;;;;5041516;28;20209;-72
2022/07/07 13:25:16;;;;;;;11.55;1.90;;;;;;;;;;5038392;28;20267;-69
2022/07/07 13:27:41;;;;;;;9.70;1.90;;;;;;;;;;5042244;28;20728;-67
2022/07/07 13:30:07;;;;;;;7.25;1.25;;;;;;;;;;5039746;28;20181;-71
2022/07/07 13:32:32;;;;;;;6.95;1.17;;;;;;;;;;5040326;28;20212;-73
2022/07/07 13:34:58;;;;;;;5.50;1.15;;;;;;;;;;5018010;28;20273;-71
2022/07/07 13:37:23;;;;;;;5.25;1.25;;;;;;;;;;5040889;28;20667;-71
2022/07/07 13:39:49;;;;;;;8.18;1.50;;;;;;;;;;5043495;28;20594;-75
2022/07/07 13:42:14;;;;;;;7.88;1.73;;;;;;;;;;5041442;28;20583;-68
2022/07/07 13:44:42;;;;;;;5.85;1.38;;;;;;;;;;5039782;28;20186;-76
2022/07/07 13:47:08;;;;;;;8.40;1.60;;;;;;;;;;5040939;28;20235;-70
2022/07/07 13:49:34;;;;;;;9.52;1.60;;;;;;;;;;5040888;28;20507;-71
2022/07/07 13:52:00;;;;;;;15.00;1.70;;;;;;;;;;5033958;28;20213;-75
2022/07/07 13:54:27;;;;;;;9.15;1.80;;;;;;;;;;5026895;28;20509;-73
2022/07/07 13:56:52;;;;;;;7.05;1.38;;;;;;;;;;5028138;28;20197;-74
2022/07/07 13:59:18;;;;;;;8.35;1.48;;;;;;;;;;5028482;28;20178;-75
2022/07/07 14:01:43;;;;;;;8.20;1.40;;;;;;;;;;5029485;28;20602;-64
2022/07/07 14:04:08;;;;;;;7.10;1.38;;;;;;;;;;5032789;28;20181;-72
2022/07/07 14:06:34;;;;;;;8.90;1.42;;;;;;;;;;5022065;28;20235;-67
2022/07/07 14:08:59;;;;;;;7.75;1.35;;;;;;;;;;5036207;28;20489;-73
2022/07/07 14:11:24;;;;;;;7.13;1.40;;;;;;;;;;5036375;28;20194;-74
2022/07/07 14:13:50;;;;;;;11.45;2.33;;;;;;;;;;5045897;28;20239;-74
2022/07/07 14:16:15;;;;;;;6.43;1.67;;;;;;;;;;5043817;28;20198;-73
2022/07/07 14:18:40;;;;;;;7.32;1.60;;;;;;;;;;5036600;28;20204;-73
2022/07/07 14:21:06;;;;;;;8.57;1.42;;;;;;;;;;5045243;28;20180;-74
2022/07/07 14:23:31;;;;;;;9.63;1.63;;;;;;;;;;5044023;28;20304;-74
2022/07/07 14:25:57;;;;;;;10.50;1.63;;;;;;;;;;5035309;28;20191;-71
2022/07/07 14:28:22;;;;;;;11.18;2.13;;;;;;;;;;5028578;28;20229;-66
2022/07/07 14:30:48;;;;;;;7.53;1.75;;;;;;;;;;5029522;28;20206;-72
2022/07/07 14:33:14;;;;;;;10.05;1.60;;;;;;;;;;5041389;28;20186;-68
2022/07/07 14:35:40;;;;;;;9.50;1.75;;;;;;;;;;5040247;28;20296;-70
2022/07/07 14:38:05;;;;;;;7.70;1.92;;;;;;;;;;5043881;28;20185;-66
2022/07/07 14:40:31;;;;;;;10.20;1.88;;;;;;;;;;5036577;28;20212;-64
2022/07/07 14:42:58;;;;;;;7.95;2.10;;;;;;;;;;5043449;28;20300;-67
2022/07/07 14:45:23;;;;;;;7.30;1.52;;;;;;;;;;5040024;28;20219;-72